createdAt,value
2022-10-17T00:00:13.715Z,18.30
2022-10-17T00:05:42.639Z,14.75
2022-10-17T00:11:09.914Z,16.92
2022-10-17T00:16:36.949Z,17.00
2022-10-17T00:22:01.916Z,13.50
2022-10-17T00:27:25.765Z,16.02
2022-10-17T00:32:49.692Z,13.07
2022-10-17T00:38:14.635Z,14.23
2022-10-17T00:43:53.033Z,17.00
2022-10-17T00:49:16.652Z,15.10
2022-10-17T00:54:46.875Z,14.57
2022-10-17T01:00:12.404Z,14.57
2022-10-17T01:05:36.802Z,18.63
2022-10-17T01:11:12.781Z,17.38
2022-10-17T01:16:43.243Z,11.95
2022-10-17T01:22:13.220Z,13.23
2022-10-17T01:27:56.555Z,13.85
2022-10-17T01:33:31.844Z,13.95
2022-10-17T01:39:03.333Z,15.43
2022-10-17T01:49:58.812Z,14.15
2022-10-17T01:55:26.441Z,12.00
2022-10-17T02:00:53.107Z,12.32
2022-10-17T02:06:19.400Z,14.40
2022-10-17T02:11:44.363Z,13.27
2022-10-17T02:17:16.634Z,12.02
2022-10-17T02:22:48.673Z,13.82
2022-10-17T02:28:20.644Z,9.57
2022-10-17T02:33:48.158Z,13.73
2022-10-17T02:39:14.597Z,12.02
2022-10-17T02:44:40.626Z,12.70
2022-10-17T02:50:06.858Z,11.03
2022-10-17T02:55:34.561Z,11.05
2022-10-17T03:00:59.626Z,14.32
2022-10-17T03:06:23.764Z,12.77
2022-10-17T03:11:48.796Z,11.88
2022-10-17T03:17:12.458Z,13.90
2022-10-17T03:22:36.566Z,11.32
2022-10-17T03:28:03.112Z,11.75
2022-10-17T03:33:26.819Z,9.35
2022-10-17T03:38:54.202Z,15.20
2022-10-17T03:44:19.717Z,12.45
2022-10-17T03:49:43.399Z,10.48
2022-10-17T03:55:08.070Z,11.55
2022-10-17T04:00:33.156Z,12.40
2022-10-17T04:05:59.743Z,11.35
2022-10-17T04:11:23.948Z,11.57
2022-10-17T04:16:50.267Z,16.25
2022-10-17T04:22:17.406Z,13.15
2022-10-17T04:27:41.077Z,11.55
2022-10-17T04:33:06.412Z,10.95
2022-10-17T04:38:30.812Z,10.75
2022-10-17T04:43:54.516Z,13.68
2022-10-17T04:49:20.082Z,13.60
2022-10-17T04:54:48.452Z,10.23
2022-10-17T05:00:13.019Z,14.57
2022-10-17T05:05:59.940Z,11.32
2022-10-17T05:11:25.705Z,14.48
2022-10-17T05:16:49.457Z,17.70
2022-10-17T05:22:14.617Z,16.92
2022-10-17T05:27:39.150Z,19.65
2022-10-17T05:33:03.591Z,14.55
2022-10-17T05:38:30.431Z,15.02
2022-10-17T05:43:54.726Z,14.50
2022-10-17T05:49:45.077Z,20.83
2022-10-17T05:55:12.095Z,18.92
2022-10-17T06:00:36.970Z,20.08
2022-10-17T06:06:05.226Z,20.85
2022-10-17T06:11:30.327Z,22.05
2022-10-17T06:16:53.958Z,25.10
2022-10-17T06:22:18.173Z,20.63
2022-10-17T06:27:44.730Z,25.83
2022-10-17T06:33:09.150Z,36.08
2022-10-17T06:38:33.207Z,31.33
2022-10-17T06:43:59.979Z,30.55
2022-10-17T06:49:42.050Z,30.00
2022-10-17T06:55:23.056Z,30.55
2022-10-17T07:06:33.245Z,23.13
2022-10-17T07:12:03.681Z,23.95
2022-10-17T07:17:29.063Z,22.65
2022-10-17T07:22:52.988Z,19.42
2022-10-17T07:28:17.344Z,17.55
2022-10-17T07:33:42.612Z,25.83
2022-10-17T07:39:06.397Z,17.27
2022-10-17T07:44:32.206Z,18.00
2022-10-17T07:49:57.790Z,18.65
2022-10-17T07:55:21.387Z,18.17
2022-10-17T08:00:48.312Z,17.38
2022-10-17T08:06:13.687Z,18.77
2022-10-17T08:11:37.364Z,15.82
2022-10-17T08:17:00.970Z,15.57
2022-10-17T08:22:26.019Z,23.42
2022-10-17T08:27:49.851Z,15.50
2022-10-17T08:33:13.475Z,15.10
2022-10-17T08:38:43.016Z,15.15
2022-10-17T08:44:16.404Z,20.27
2022-10-17T08:49:47.887Z,17.50
2022-10-17T09:00:52.418Z,18.20
2022-10-17T09:06:24.511Z,16.42
2022-10-17T09:12:03.373Z,15.82
2022-10-17T09:17:35.903Z,17.45
2022-10-17T09:23:03.186Z,18.65
2022-10-17T09:28:32.553Z,16.58
2022-10-17T09:33:58.261Z,13.10
2022-10-17T09:39:26.146Z,13.93
2022-10-17T09:44:56.562Z,11.05
2022-10-17T09:50:23.985Z,12.27
2022-10-17T09:55:50.490Z,9.90
2022-10-17T10:01:23.687Z,15.32
2022-10-17T10:07:03.879Z,11.43
2022-10-17T10:12:30.130Z,13.43
2022-10-17T10:17:55.256Z,10.15
2022-10-17T10:23:22.203Z,9.50
2022-10-17T10:28:53.728Z,12.40
2022-10-17T10:34:22.489Z,8.50
2022-10-17T10:39:50.760Z,8.63
2022-10-17T10:45:35.655Z,7.75
2022-10-17T10:51:09.041Z,10.38
2022-10-17T10:56:36.764Z,11.23
2022-10-17T11:02:05.346Z,9.10
2022-10-17T11:07:33.274Z,10.75
2022-10-17T11:13:01.716Z,15.88
2022-10-17T11:18:29.611Z,9.32
2022-10-17T11:24:02.259Z,7.43
2022-10-17T11:29:30.765Z,10.05
2022-10-17T11:34:59.083Z,10.32
2022-10-17T11:40:32.299Z,9.95
2022-10-17T11:46:00.705Z,11.60
2022-10-17T11:57:22.631Z,9.65
2022-10-17T12:02:52.387Z,8.60
2022-10-17T12:08:27.959Z,7.80
2022-10-17T12:13:57.282Z,10.63
2022-10-17T12:19:25.001Z,4.93
2022-10-17T12:25:00.867Z,6.35
2022-10-17T12:30:27.998Z,7.22
2022-10-17T12:35:53.114Z,5.95
2022-10-17T12:41:17.075Z,6.20
2022-10-17T12:46:52.059Z,12.52
2022-10-17T12:52:24.137Z,11.57
2022-10-17T12:57:56.636Z,5.75
2022-10-17T13:03:25.186Z,10.05
2022-10-17T13:08:55.560Z,7.72
2022-10-17T13:14:23.914Z,8.98
2022-10-17T13:19:48.912Z,5.82
2022-10-17T13:25:18.169Z,7.28
2022-10-17T13:30:49.616Z,6.23
2022-10-17T13:36:19.748Z,9.80
2022-10-17T13:41:43.627Z,12.68
2022-10-17T13:47:07.537Z,6.72
2022-10-17T13:52:32.737Z,19.75
2022-10-17T13:58:17.011Z,4.68
2022-10-17T14:03:48.619Z,6.95
2022-10-17T14:09:22.853Z,9.07
2022-10-17T14:15:09.678Z,8.05
2022-10-17T14:21:08.140Z,12.15
2022-10-17T14:26:21.893Z,12.25
2022-10-17T14:31:47.609Z,8.38
2022-10-17T14:37:12.685Z,4.53
2022-10-17T14:42:42.175Z,9.02
2022-10-17T14:48:11.667Z,7.57
2022-10-17T14:53:35.582Z,9.03
2022-10-17T14:59:02.693Z,8.05
2022-10-17T15:04:26.418Z,10.02
2022-10-17T15:09:51.664Z,9.00
2022-10-17T15:15:16.788Z,10.57
2022-10-17T15:20:40.559Z,8.45
2022-10-17T15:26:07.208Z,9.13
2022-10-17T15:31:32.542Z,8.55
2022-10-17T15:36:56.182Z,7.13
2022-10-17T15:42:20.754Z,11.10
2022-10-17T15:47:54.270Z,8.88
2022-10-17T15:53:17.855Z,19.80
2022-10-17T15:58:42.060Z,12.43
2022-10-17T16:04:07.739Z,13.20
2022-10-17T16:09:31.970Z,14.73
2022-10-17T16:15:00.257Z,9.05
2022-10-17T16:20:26.721Z,15.15
2022-10-17T16:25:51.955Z,29.15
2022-10-17T16:31:22.926Z,6.95
2022-10-17T16:36:48.838Z,7.85
2022-10-17T16:42:12.527Z,15.88
2022-10-17T16:47:36.533Z,14.38
2022-10-17T16:53:04.119Z,13.02
2022-10-17T16:58:32.739Z,14.70
2022-10-17T17:03:57.327Z,14.60
2022-10-17T17:09:23.520Z,16.30
2022-10-17T17:14:47.275Z,14.18
2022-10-17T17:20:11.734Z,18.02
2022-10-17T17:25:36.697Z,22.15
2022-10-17T17:31:00.562Z,22.85
2022-10-17T17:36:26.078Z,18.73
2022-10-17T17:41:51.053Z,22.88
2022-10-17T17:47:14.656Z,17.98
2022-10-17T17:52:40.254Z,13.80
2022-10-17T17:58:05.576Z,17.13
2022-10-17T18:03:29.299Z,13.02
2022-10-17T18:08:54.343Z,17.52
2022-10-17T18:14:23.800Z,12.07
2022-10-17T18:19:47.495Z,16.30
2022-10-17T18:25:11.377Z,13.73
2022-10-17T18:30:39.209Z,15.55
2022-10-17T18:36:07.472Z,16.83
2022-10-17T18:41:31.971Z,18.23
2022-10-17T18:47:02.951Z,20.90
2022-10-17T18:52:27.986Z,51.00
2022-10-17T18:57:53.046Z,58.15
2022-10-17T19:03:18.751Z,57.08
2022-10-17T19:08:43.531Z,53.55
2022-10-17T19:14:13.078Z,52.10
2022-10-17T19:19:38.335Z,57.28
2022-10-17T19:25:01.932Z,38.85
2022-10-17T19:30:25.619Z,27.50
2022-10-17T19:35:57.700Z,26.30
2022-10-17T19:41:22.762Z,18.95
2022-10-17T19:46:49.075Z,19.83
2022-10-17T19:52:15.317Z,16.17
2022-10-17T19:57:39.315Z,16.55
2022-10-17T20:03:03.471Z,16.98
2022-10-17T20:08:28.563Z,19.10
2022-10-17T20:13:52.817Z,33.15
2022-10-17T20:19:16.608Z,26.02
2022-10-17T20:24:42.116Z,19.58
2022-10-17T20:30:06.767Z,25.73
2022-10-17T20:35:30.381Z,19.27
2022-10-17T20:40:55.426Z,14.25
2022-10-17T20:46:34.993Z,16.10
2022-10-17T20:52:00.770Z,16.80
2022-10-17T20:57:25.965Z,15.10
2022-10-17T21:02:49.633Z,17.63
2022-10-17T21:08:13.237Z,20.55
2022-10-17T21:13:38.605Z,14.65
2022-10-17T21:19:02.736Z,13.88
2022-10-17T21:24:26.463Z,14.80
2022-10-17T21:29:52.049Z,18.15
2022-10-17T21:35:21.154Z,15.50
2022-10-17T21:40:48.777Z,14.77
2022-10-17T21:46:17.040Z,14.73
2022-10-17T21:51:42.271Z,16.98
2022-10-17T21:57:06.533Z,18.10
2022-10-17T22:02:31.798Z,22.35
2022-10-17T22:07:55.559Z,23.17
2022-10-17T22:13:19.219Z,20.83
2022-10-17T22:18:44.631Z,24.95
2022-10-17T22:24:11.559Z,22.13
2022-10-17T22:29:35.352Z,16.30
2022-10-17T22:35:00.324Z,21.75
2022-10-17T22:40:23.887Z,17.60
2022-10-17T22:45:53.128Z,23.45
2022-10-17T22:51:18.264Z,17.15
2022-10-17T22:56:41.924Z,16.73
2022-10-17T23:02:05.582Z,13.30
2022-10-17T23:07:30.611Z,14.20
2022-10-17T23:12:54.191Z,15.18
2022-10-17T23:18:17.802Z,20.30
2022-10-17T23:23:43.569Z,16.13
2022-10-17T23:29:07.520Z,22.00
2022-10-17T23:34:31.517Z,17.88
2022-10-17T23:39:56.463Z,18.90
2022-10-17T23:45:20.287Z,14.07
2022-10-17T23:50:44.344Z,22.63
2022-10-17T23:56:11.405Z,21.63
